Time;durP1;ratioP1;P1;durP2;ratioP2;P2;SDS_P1;SDS_P2;PMS_P1;PMS_P2;Temp;Humidity;BMP_temperature;BMP_pressure;BME280_temperature;BME280_humidity;BME280_pressure;Samples;Min_cycle;Max_cycle;Signal;HPM_P1;HPM_P2
2020/12/28 00:00:20;;;;;;;2.60;0.38;;;7.70;83.20;;;;;;5016388;28;20037;-71
2020/12/28 00:02:46;;;;;;;2.88;0.35;;;7.50;83.10;;;;;;5016124;28;20068;-71
2020/12/28 00:05:12;;;;;;;2.25;0.50;;;7.50;83.20;;;;;;5015996;28;20485;-71
2020/12/28 00:07:39;;;;;;;2.67;0.50;;;7.50;83.20;;;;;;5016122;28;20034;-71
2020/12/28 00:10:08;;;;;;;1.73;0.30;;;7.80;83.50;;;;;;5016109;28;20033;-71
2020/12/28 00:12:46;;;;;;;1.13;0.20;;;7.60;83.30;;;;;;5016053;28;20069;-71
2020/12/28 00:15:32;;;;;;;3.20;0.38;;;7.00;83.00;;;;;;5015612;28;20520;-71
2020/12/28 00:18:02;;;;;;;2.55;0.15;;;7.40;83.00;;;;;;5015530;28;20045;-71
2020/12/28 00:20:30;;;;;;;1.92;0.20;;;7.60;83.40;;;;;;5015995;28;20057;-71
2020/12/28 00:22:56;;;;;;;4.40;0.38;;;7.40;82.80;;;;;;5016056;28;20524;-71
2020/12/28 00:25:27;;;;;;;4.22;0.20;;;7.60;82.90;;;;;;5016018;28;20052;-71
2020/12/28 00:27:53;;;;;;;5.03;0.40;;;7.50;82.90;;;;;;5015762;28;20079;-71
2020/12/28 00:30:19;;;;;;;3.47;0.47;;;7.20;82.70;;;;;;5015576;28;20061;-71
2020/12/28 00:32:45;;;;;;;3.97;0.43;;;7.40;83.00;;;;;;5015212;28;20030;-71
2020/12/28 00:35:12;;;;;;;3.10;0.50;;;7.20;82.80;;;;;;5015372;28;20038;-71
2020/12/28 00:37:38;;;;;;;2.97;0.25;;;7.20;83.10;;;;;;5014245;28;20394;-71
2020/12/28 00:40:06;;;;;;;3.90;0.60;;;7.00;83.00;;;;;;5015646;28;20116;-71
2020/12/28 00:42:31;;;;;;;3.10;0.40;;;7.20;83.10;;;;;;5015263;28;20100;-71
2020/12/28 00:44:58;;;;;;;2.30;0.38;;;7.20;83.00;;;;;;5015040;28;20041;-71
2020/12/28 00:47:24;;;;;;;2.00;0.40;;;7.10;82.80;;;;;;5014519;28;20044;-71
2020/12/28 00:49:50;;;;;;;2.72;0.30;;;7.10;82.80;;;;;;5014934;28;20045;-71
2020/12/28 00:52:16;;;;;;;4.57;0.30;;;7.10;82.70;;;;;;5014650;28;20393;-71
2020/12/28 00:54:42;;;;;;;3.50;0.57;;;7.00;82.90;;;;;;5014947;28;20046;-71
2020/12/28 00:57:08;;;;;;;2.15;0.50;;;7.10;82.70;;;;;;5014627;28;20049;-71
2020/12/28 00:59:33;;;;;;;6.90;1.00;;;6.90;82.40;;;;;;5015041;28;20490;-71
2020/12/28 01:02:00;;;;;;;7.30;1.00;;;6.90;82.40;;;;;;5014618;28;20058;-71
2020/12/28 01:04:26;;;;;;;5.38;1.02;;;6.80;82.20;;;;;;5014925;28;20054;-71
2020/12/28 01:06:52;;;;;;;7.88;0.93;;;6.80;82.30;;;;;;5014831;28;20060;-70
2020/12/28 01:09:18;;;;;;;6.97;0.90;;;6.50;82.20;;;;;;5014586;28;20371;-71
2020/12/28 01:11:45;;;;;;;5.70;0.65;;;6.60;82.00;;;;;;5014931;28;20117;-70
2020/12/28 01:14:11;;;;;;;6.93;0.77;;;6.40;81.60;;;;;;5014237;28;20042;-71
2020/12/28 01:16:38;;;;;;;5.35;0.50;;;6.70;82.00;;;;;;5014663;28;20037;-71
2020/12/28 01:19:05;;;;;;;3.38;0.50;;;6.80;81.90;;;;;;5014538;28;20040;-71
2020/12/28 01:21:31;;;;;;;5.43;0.52;;;6.70;81.70;;;;;;5014519;28;20045;-71
2020/12/28 01:23:57;;;;;;;6.97;0.90;;;8.10;82.40;;;;;;5014376;28;20037;-71
2020/12/28 01:26:23;;;;;;;6.20;0.40;;;6.50;81.60;;;;;;5014413;28;20520;-71
2020/12/28 01:28:49;;;;;;;7.05;1.00;;;6.60;81.80;;;;;;5014162;28;20048;-71
2020/12/28 01:31:15;;;;;;;5.35;0.35;;;6.60;81.70;;;;;;5013912;28;20144;-70
2020/12/28 01:33:41;;;;;;;3.72;0.10;;;6.60;81.60;;;;;;5014326;28;20450;-71
2020/12/28 01:36:06;;;;;;;6.55;0.40;;;6.50;81.70;;;;;;5014343;28;20050;-71
2020/12/28 01:38:32;;;;;;;4.05;0.20;;;6.50;81.80;;;;;;5014416;28;20120;-71
2020/12/28 01:40:59;;;;;;;4.25;0.28;;;6.50;81.90;;;;;;5014369;28;20448;-71
2020/12/28 01:43:29;;;;;;;4.68;0.30;;;6.40;81.80;;;;;;5014051;28;20497;-71
2020/12/28 01:45:55;;;;;;;2.20;0.30;;;6.50;81.70;;;;;;5013869;28;20045;-71
2020/12/28 01:48:21;;;;;;;5.22;0.30;;;6.30;81.80;;;;;;5014104;28;20038;-70
2020/12/28 01:50:47;;;;;;;6.55;0.50;;;6.30;81.70;;;;;;5014167;28;20129;-71
2020/12/28 01:53:14;;;;;;;4.65;0.47;;;6.40;81.70;;;;;;5014038;28;20041;-71
2020/12/28 01:55:44;;;;;;;5.78;0.43;;;6.30;81.80;;;;;;5014187;28;20073;-71
2020/12/28 01:58:09;;;;;;;3.95;0.30;;;6.30;81.80;;;;;;5013283;28;20041;-70
2020/12/28 02:00:35;;;;;;;4.28;0.28;;;6.30;81.90;;;;;;5012713;28;20046;-71
2020/12/28 02:03:01;;;;;;;4.95;0.20;;;6.10;81.80;;;;;;5013459;28;20022;-70
2020/12/28 02:05:27;;;;;;;6.20;0.35;;;6.30;81.90;;;;;;5013815;28;20053;-71
2020/12/28 02:07:55;;;;;;;6.82;0.68;;;6.30;81.80;;;;;;5013983;28;20389;-71
2020/12/28 02:10:21;;;;;;;3.22;0.50;;;6.30;82.00;;;;;;5013633;28;20441;-70
2020/12/28 02:12:46;;;;;;;4.88;0.45;;;6.30;82.00;;;;;;5013695;28;20041;-71
2020/12/28 02:15:12;;;;;;;3.15;0.47;;;6.30;81.70;;;;;;5013655;28;20046;-70
2020/12/28 02:17:38;;;;;;;4.63;0.30;;;6.50;81.90;;;;;;5013678;28;20050;-70
2020/12/28 02:20:04;;;;;;;7.15;0.68;;;6.20;81.70;;;;;;5013663;28;20124;-70
2020/12/28 02:22:30;;;;;;;8.95;0.70;;;6.10;81.70;;;;;;5013158;28;20125;-71
2020/12/28 02:24:56;;;;;;;6.10;1.08;;;6.20;81.80;;;;;;5013619;28;20563;-70
2020/12/28 02:27:21;;;;;;;6.18;0.95;;;5.90;81.50;;;;;;5013535;28;20034;-71
2020/12/28 02:29:47;;;;;;;6.95;0.75;;;6.20;81.70;;;;;;5012965;28;20057;-70
2020/12/28 02:32:13;;;;;;;8.93;0.47;;;6.20;81.60;;;;;;5013300;28;20030;-70
2020/12/28 02:34:39;;;;;;;4.93;0.40;;;6.30;81.70;;;;;;5013188;28;20077;-71
2020/12/28 02:37:05;;;;;;;7.18;0.50;;;6.10;81.60;;;;;;5013692;28;20108;-70
2020/12/28 02:39:30;;;;;;;5.90;0.68;;;6.10;81.90;;;;;;5013199;28;20497;-70
2020/12/28 02:41:56;;;;;;;4.28;0.50;;;6.50;82.20;;;;;;5013190;28;20382;-71
2020/12/28 02:44:22;;;;;;;3.80;0.70;;;6.40;82.30;;;;;;5013280;28;20045;-70
2020/12/28 02:46:48;;;;;;;5.13;0.90;;;6.20;82.20;;;;;;5013208;28;20065;-70
2020/12/28 02:49:14;;;;;;;8.25;0.88;;;5.80;82.00;;;;;;5013010;28;20489;-71
2020/12/28 02:51:39;;;;;;;4.43;0.80;;;6.50;82.50;;;;;;5013325;28;20083;-70
2020/12/28 02:54:05;;;;;;;6.28;0.70;;;6.40;82.20;;;;;;5013352;28;20042;-71
2020/12/28 02:56:31;;;;;;;5.47;0.40;;;6.40;82.00;;;;;;5013254;28;20042;-70
2020/12/28 02:58:57;;;;;;;3.45;0.38;;;6.60;81.70;;;;;;5012906;28;20096;-71
2020/12/28 03:01:22;;;;;;;4.18;0.68;;;6.40;81.50;;;;;;5013239;28;20442;-70
2020/12/28 03:03:48;;;;;;;5.70;0.38;;;6.40;81.70;;;;;;5013181;28;20041;-70
2020/12/28 03:06:14;;;;;;;3.80;0.40;;;6.40;81.60;;;;;;5013110;28;20034;-70
2020/12/28 03:08:40;;;;;;;4.50;0.60;;;6.20;81.40;;;;;;5013365;28;20045;-70
2020/12/28 03:11:05;;;;;;;7.65;0.40;;;6.10;81.20;;;;;;5016955;28;20122;-70
2020/12/28 03:13:31;;;;;;;5.20;0.50;;;6.00;81.10;;;;;;5017064;28;20038;-70
2020/12/28 03:15:57;;;;;;;6.40;0.60;;;6.10;81.10;;;;;;5017014;28;20599;-70
2020/12/28 03:18:23;;;;;;;10.35;0.50;;;6.00;81.00;;;;;;5016737;28;20048;-70
2020/12/28 03:20:49;;;;;;;5.65;0.40;;;5.90;81.20;;;;;;5016989;28;20117;-70
2020/12/28 03:23:14;;;;;;;4.45;0.47;;;5.80;81.10;;;;;;5016508;28;20402;-71
2020/12/28 03:25:40;;;;;;;7.05;0.50;;;6.50;81.40;;;;;;5016452;28;20049;-70
2020/12/28 03:28:06;;;;;;;5.07;0.52;;;6.00;81.00;;;;;;5016688;28;20041;-70
2020/12/28 03:30:32;;;;;;;6.05;0.47;;;5.90;80.90;;;;;;5016224;28;20049;-70
2020/12/28 03:32:57;;;;;;;5.45;0.30;;;5.90;80.90;;;;;;5016275;28;20045;-70
2020/12/28 03:35:23;;;;;;;7.68;0.60;;;5.70;80.70;;;;;;5016446;28;20056;-70
2020/12/28 03:37:49;;;;;;;3.38;0.38;;;5.90;80.80;;;;;;5016603;28;20168;-70
2020/12/28 03:40:15;;;;;;;8.27;0.45;;;6.00;81.00;;;;;;5016605;28;20071;-70
2020/12/28 03:42:40;;;;;;;3.95;0.35;;;6.00;80.90;;;;;;5015902;28;20042;-70
2020/12/28 03:45:06;;;;;;;7.90;0.77;;;5.80;80.80;;;;;;5015982;28;20046;-70
2020/12/28 03:47:32;;;;;;;6.55;0.45;;;5.80;80.60;;;;;;5016247;28;20041;-70
2020/12/28 03:49:58;;;;;;;5.20;0.25;;;5.50;80.40;;;;;;5016072;28;20037;-70
2020/12/28 03:52:23;;;;;;;5.45;0.38;;;5.70;80.40;;;;;;5016005;28;20044;-70
2020/12/28 03:54:49;;;;;;;5.70;0.35;;;5.90;80.50;;;;;;5016311;28;20045;-70
2020/12/28 03:57:15;;;;;;;8.50;0.47;;;5.60;80.50;;;;;;5016345;28;20033;-70
2020/12/28 03:59:41;;;;;;;5.50;0.38;;;5.70;80.90;;;;;;5016117;28;20038;-70
2020/12/28 04:02:07;;;;;;;6.60;0.52;;;5.70;81.10;;;;;;5016323;28;20393;-70
2020/12/28 04:04:32;;;;;;;5.88;0.20;;;5.90;81.10;;;;;;5015875;28;20053;-70
2020/12/28 04:06:58;;;;;;;5.53;0.30;;;5.60;81.10;;;;;;5016133;28;20038;-70
2020/12/28 04:09:24;;;;;;;7.43;0.40;;;5.60;81.10;;;;;;5015484;28;20565;-70
2020/12/28 04:11:50;;;;;;;5.25;0.30;;;5.90;81.30;;;;;;5015809;28;20125;-70
2020/12/28 04:14:16;;;;;;;7.75;0.43;;;5.60;81.10;;;;;;5015682;28;20497;-70
2020/12/28 04:16:41;;;;;;;6.75;0.30;;;5.60;81.20;;;;;;5015617;28;20366;-70
2020/12/28 04:19:07;;;;;;;6.88;0.40;;;5.50;81.00;;;;;;5016005;28;20120;-70
2020/12/28 04:21:33;;;;;;;7.25;0.20;;;5.60;80.90;;;;;;5015090;28;20034;-70
2020/12/28 04:23:59;;;;;;;5.25;0.15;;;5.60;80.70;;;;;;5015545;28;20076;-70
2020/12/28 04:26:24;;;;;;;7.18;0.25;;;5.50;80.70;;;;;;5015647;28;20037;-70
2020/12/28 04:28:50;;;;;;;4.68;0.20;;;5.50;81.00;;;;;;5015426;28;20049;-70
2020/12/28 04:31:16;;;;;;;6.57;0.40;;;5.60;81.20;;;;;;5015139;28;20058;-70
2020/12/28 04:33:42;;;;;;;6.43;0.30;;;5.70;81.30;;;;;;5015843;28;20354;-70
2020/12/28 04:36:08;;;;;;;4.95;0.40;;;5.80;81.20;;;;;;5015475;28;20370;-70
2020/12/28 04:38:34;;;;;;;6.55;0.20;;;5.50;81.10;;;;;;5015421;28;20038;-70
2020/12/28 04:40:59;;;;;;;7.15;0.50;;;5.60;81.00;;;;;;5015646;28;20046;-70
2020/12/28 04:43:26;;;;;;;7.22;0.30;;;5.60;80.80;;;;;;5015439;28;20045;-70
2020/12/28 04:45:58;;;;;;;5.70;0.35;;;5.20;80.50;;;;;;5015524;28;20045;-70
2020/12/28 04:48:24;;;;;;;6.05;0.20;;;5.60;80.90;;;;;;5015517;28;20038;-70
2020/12/28 04:50:51;;;;;;;4.40;0.20;;;5.60;80.90;;;;;;5015514;28;20624;-70
2020/12/28 04:53:17;;;;;;;5.90;0.40;;;5.50;80.80;;;;;;5015458;28;20030;-70
2020/12/28 04:55:43;;;;;;;6.93;0.35;;;5.50;81.00;;;;;;5015353;28;20050;-70
2020/12/28 04:58:08;;;;;;;8.05;0.40;;;5.50;80.90;;;;;;5015348;28;20096;-70
2020/12/28 05:00:34;;;;;;;5.90;0.20;;;5.70;81.10;;;;;;5014885;28;20041;-70
2020/12/28 05:03:00;;;;;;;6.47;0.22;;;5.70;81.10;;;;;;5015015;28;20038;-70
2020/12/28 05:05:26;;;;;;;5.30;0.10;;;5.50;81.00;;;;;;5014965;28;20049;-70
2020/12/28 05:07:51;;;;;;;4.60;0.20;;;5.50;81.00;;;;;;5015162;28;20041;-70
2020/12/28 05:10:23;;;;;;;4.25;0.17;;;5.60;80.90;;;;;;5015037;28;20046;-70
2020/12/28 05:12:48;;;;;;;5.50;0.35;;;5.50;80.90;;;;;;5014823;28;20045;-70
2020/12/28 05:15:14;;;;;;;7.55;0.10;;;5.40;81.00;;;;;;5014789;28;20050;-70
2020/12/28 05:17:41;;;;;;;4.32;0.20;;;5.40;80.90;;;;;;5015108;28;20134;-70
2020/12/28 05:20:07;;;;;;;5.45;0.30;;;5.60;80.90;;;;;;5015084;28;20096;-70
2020/12/28 05:22:32;;;;;;;6.93;0.17;;;5.90;81.00;;;;;;5015182;28;20034;-70
2020/12/28 05:24:59;;;;;;;4.65;0.30;;;5.50;80.60;;;;;;5014879;28;20061;-70
2020/12/28 05:27:25;;;;;;;3.55;0.17;;;5.50;80.60;;;;;;5014458;28;20038;-70
2020/12/28 05:29:51;;;;;;;7.75;0.20;;;5.60;80.70;;;;;;5014417;28;20515;-70
2020/12/28 05:32:17;;;;;;;7.60;0.30;;;5.40;80.80;;;;;;5014811;28;20121;-70
2020/12/28 05:34:47;;;;;;;4.72;0.22;;;5.20;80.90;;;;;;5014852;28;20089;-70
2020/12/28 05:37:13;;;;;;;7.93;0.20;;;5.60;81.40;;;;;;5014574;28;20037;-70
2020/12/28 05:39:41;;;;;;;6.75;0.30;;;5.10;81.30;;;;;;5014588;28;20065;-70
2020/12/28 05:42:09;;;;;;;5.55;0.20;;;5.40;81.50;;;;;;5014479;28;20560;-70
2020/12/28 05:44:39;;;;;;;2.17;0.20;;;5.50;81.60;;;;;;5014531;28;20103;-70
2020/12/28 05:47:11;;;;;;;2.60;0.20;;;5.20;81.40;;;;;;5014398;28;20159;-70
2020/12/28 05:49:44;;;;;;;5.28;0.20;;;5.50;81.70;;;;;;5014132;28;20077;-70
2020/12/28 05:52:12;;;;;;;4.47;0.20;;;5.60;81.80;;;;;;5014432;28;20124;-70
2020/12/28 05:54:39;;;;;;;3.80;0.10;;;5.50;81.70;;;;;;5014514;28;20559;-70
2020/12/28 05:57:09;;;;;;;3.42;0.00;;;5.60;81.60;;;;;;5014177;28;20128;-70
2020/12/28 05:59:36;;;;;;;4.40;0.10;;;5.70;81.70;;;;;;5014068;28;20056;-70
2020/12/28 06:02:06;;;;;;;3.40;0.10;;;5.70;81.70;;;;;;5013803;28;20359;-70
2020/12/28 06:04:32;;;;;;;3.85;0.10;;;5.70;81.60;;;;;;5014402;28;20077;-70
2020/12/28 06:07:02;;;;;;;3.85;0.10;;;5.90;81.60;;;;;;5014356;28;20373;-70
2020/12/28 06:09:29;;;;;;;4.32;0.30;;;5.80;81.60;;;;;;5013978;28;20125;-70
2020/12/28 06:12:09;;;;;;;6.47;1.50;;;5.50;81.50;;;;;;5013951;28;20033;-70
2020/12/28 06:14:37;;;;;;;4.53;0.95;;;5.90;81.70;;;;;;5014047;28;20061;-70
2020/12/28 06:17:08;;;;;;;4.50;0.50;;;5.70;81.40;;;;;;5013485;28;20381;-70
2020/12/28 06:19:35;;;;;;;5.07;1.10;;;5.70;81.50;;;;;;5014038;28;20037;-70
2020/12/28 06:22:01;;;;;;;5.65;0.63;;;5.80;81.50;;;;;;5014057;28;20117;-70
2020/12/28 06:24:27;;;;;;;3.55;0.30;;;5.80;81.40;;;;;;5014006;28;20049;-70
2020/12/28 06:27:08;;;;;;;1.77;0.20;;;6.00;81.50;;;;;;5013686;28;20315;-70
2020/12/28 06:29:35;;;;;;;5.10;0.35;;;5.80;81.40;;;;;;5013884;28;20056;-70
2020/12/28 06:32:15;;;;;;;6.25;0.38;;;5.80;81.60;;;;;;5013667;28;20044;-70
2020/12/28 06:34:44;;;;;;;7.18;1.95;;;5.90;82.40;;;;;;5013533;28;20440;-70
2020/12/28 06:37:10;;;;;;;10.45;2.05;;;5.90;81.90;;;;;;5013986;28;20049;-70
2020/12/28 06:39:36;;;;;;;7.97;1.35;;;5.80;81.80;;;;;;5013970;28;20050;-70
2020/12/28 06:42:13;;;;;;;2.53;0.45;;;6.00;82.00;;;;;;5013373;28;20033;-70
2020/12/28 06:44:40;;;;;;;6.70;0.50;;;6.50;82.30;;;;;;5015416;28;20052;-70
2020/12/28 06:47:23;;;;;;;3.08;0.32;;;5.80;81.90;;;;;;5017762;28;20052;-70
2020/12/28 06:49:50;;;;;;;5.05;0.38;;;6.30;82.10;;;;;;5017524;28;20045;-70
2020/12/28 06:52:16;;;;;;;2.15;0.20;;;6.30;82.10;;;;;;5010724;28;20437;-71
2020/12/28 06:54:43;;;;;;;3.20;0.30;;;6.30;82.10;;;;;;5015575;28;20525;-70
2020/12/28 06:57:10;;;;;;;5.72;2.10;;;6.30;82.10;;;;;;5015848;28;20048;-71
2020/12/28 06:59:38;;;;;;;7.88;3.95;;;6.30;82.00;;;;;;5015051;28;20046;-70
2020/12/28 07:02:06;;;;;;;7.53;0.95;;;6.20;82.00;;;;;;5015465;28;20763;-70
2020/12/28 07:04:37;;;;;;;5.60;1.35;;;6.20;82.10;;;;;;5015785;28;20038;-70
2020/12/28 07:07:07;;;;;;;5.53;1.17;;;6.40;82.20;;;;;;5016131;28;20029;-70
2020/12/28 07:09:36;;;;;;;4.65;0.70;;;6.50;82.30;;;;;;5015934;28;20041;-70
2020/12/28 07:12:08;;;;;;;3.17;0.60;;;6.30;82.20;;;;;;5016529;28;20069;-70
2020/12/28 07:14:35;;;;;;;2.65;0.35;;;6.60;82.50;;;;;;5017307;28;20042;-70
2020/12/28 07:17:01;;;;;;;3.55;0.70;;;6.40;82.40;;;;;;5016931;28;20366;-71
2020/12/28 07:19:27;;;;;;;4.20;0.70;;;6.40;82.40;;;;;;5016559;28;20057;-71
2020/12/28 07:21:53;;;;;;;6.68;0.50;;;6.80;82.60;;;;;;5016890;28;20503;-71
2020/12/28 07:24:19;;;;;;;3.85;0.60;;;6.50;82.40;;;;;;5016862;28;20041;-71
2020/12/28 07:26:47;;;;;;;3.50;0.35;;;6.80;82.60;;;;;;5016756;28;20033;-71
2020/12/28 07:29:17;;;;;;;6.32;0.60;;;6.80;82.70;;;;;;5062595;22;20057;-71
2020/12/28 07:31:45;;;;;;;4.65;0.50;;;6.80;82.90;;;;;;5061047;28;20032;-71
2020/12/28 07:34:18;;;;;;;9.52;0.88;;;6.70;83.00;;;;;;5056249;28;20249;-71
2020/12/28 07:36:47;;;;;;;6.78;0.57;;;7.10;83.20;;;;;;5055947;28;20048;-72
2020/12/28 07:39:14;;;;;;;12.70;3.75;;;7.20;83.00;;;;;;5055064;28;20552;-71
2020/12/28 07:41:40;;;;;;;8.65;2.40;;;7.00;82.60;;;;;;5056271;28;20095;-70
2020/12/28 07:44:06;;;;;;;9.85;2.60;;;7.00;82.50;;;;;;5055963;28;20056;-70
2020/12/28 07:46:32;;;;;;;20.25;8.35;;;7.10;82.40;;;;;;5056040;28;20044;-70
2020/12/28 07:49:37;;;;;;;15.68;5.70;;;7.10;82.40;;;;;;5055790;28;20056;-70
2020/12/28 07:52:22;;;;;;;19.20;6.78;;;7.40;82.60;;;;;;4993776;28;20077;-70
2020/12/28 07:55:14;;;;;;;13.63;5.47;;;7.20;82.60;;;;;;4993505;28;20520;-70
2020/12/28 07:57:50;;;;;;;9.23;1.60;;;7.20;82.60;;;;;;5041574;28;20033;-70
2020/12/28 08:00:17;;;;;;;7.88;2.17;;;7.10;82.70;;;;;;5056364;28;20487;-70
2020/12/28 08:02:50;;;;;;;11.35;2.53;;;7.30;82.90;;;;;;5055938;28;20386;-70
2020/12/28 08:05:19;;;;;;;10.23;2.40;;;7.40;82.90;;;;;;5055831;28;20049;-70
2020/12/28 08:07:44;;;;;;;12.98;2.22;;;7.60;83.00;;;;;;5055753;28;20069;-70
2020/12/28 08:10:11;;;;;;;8.15;1.58;;;7.60;82.90;;;;;;5055676;28;20122;-70
2020/12/28 08:13:00;;;;;;;9.90;1.25;;;7.60;82.90;;;;;;5055361;28;20075;-70
2020/12/28 08:15:31;;;;;;;13.90;1.42;;;7.50;82.80;;;;;;5054517;28;20110;-70
2020/12/28 08:18:11;;;;;;;13.98;1.63;;;7.70;83.00;;;;;;5051526;28;20461;-70
2020/12/28 08:20:39;;;;;;;13.95;1.83;;;7.70;82.90;;;;;;5047247;28;20562;-70
2020/12/28 08:23:05;;;;;;;12.13;1.90;;;8.00;83.10;;;;;;5074673;28;20036;-70
2020/12/28 08:25:32;;;;;;;14.55;2.05;;;7.90;83.10;;;;;;5048136;28;20045;-70
2020/12/28 08:28:00;;;;;;;17.85;2.60;;;7.90;83.20;;;;;;5054611;28;20068;-70
2020/12/28 08:30:28;;;;;;;20.20;2.50;;;7.90;83.40;;;;;;5054459;28;20523;-70
2020/12/28 08:32:56;;;;;;;18.50;3.15;;;7.80;83.50;;;;;;5053271;28;20834;-70
2020/12/28 08:35:23;;;;;;;21.48;4.32;;;7.80;83.80;;;;;;5053635;28;20049;-70
2020/12/28 08:37:50;;;;;;;21.80;3.22;;;8.30;84.20;;;;;;5053943;28;20431;-70
2020/12/28 08:40:21;;;;;;;23.08;3.92;;;8.50;84.40;;;;;;5054081;28;20628;-70
2020/12/28 08:42:55;;;;;;;30.35;6.22;;;8.50;84.50;;;;;;5053813;28;20204;-70
2020/12/28 08:45:22;;;;;;;28.08;6.20;;;8.80;84.80;;;;;;5054147;28;20147;-71
2020/12/28 08:47:53;;;;;;;24.75;3.65;;;9.00;84.80;;;;;;5054132;28;20033;-71
2020/12/28 08:50:20;;;;;;;21.35;4.18;;;9.10;84.70;;;;;;5053753;28;20045;-71
2020/12/28 08:52:54;;;;;;;23.42;3.17;;;9.10;84.50;;;;;;5054427;28;20098;-71
2020/12/28 08:55:21;;;;;;;18.27;2.85;;;9.30;84.60;;;;;;5053725;28;20518;-70
2020/12/28 08:57:59;;;;;;;17.27;2.70;;;9.30;84.70;;;;;;5054050;28;20052;-70
2020/12/28 09:00:26;;;;;;;21.73;3.05;;;9.40;84.90;;;;;;5051557;28;20029;-71
2020/12/28 09:02:59;;;;;;;16.88;2.35;;;9.30;84.90;;;;;;5053401;28;20672;-71
2020/12/28 09:05:31;;;;;;;15.77;2.08;;;9.40;84.90;;;;;;5053478;28;20036;-71
2020/12/28 09:07:58;;;;;;;20.23;2.22;;;9.30;85.00;;;;;;5053375;28;20055;-71
2020/12/28 09:10:23;;;;;;;13.50;2.03;;;9.50;85.50;;;;;;5053654;28;20068;-71
2020/12/28 09:12:49;;;;;;;13.95;1.83;;;9.60;85.50;;;;;;5051054;28;20134;-71
2020/12/28 09:15:15;;;;;;;10.73;1.27;;;9.60;85.50;;;;;;5033517;28;20049;-71
2020/12/28 09:17:41;;;;;;;13.23;1.52;;;9.60;85.50;;;;;;5034005;28;20069;-71
2020/12/28 09:20:08;;;;;;;6.78;1.00;;;9.70;85.50;;;;;;5033209;28;20451;-71
2020/12/28 09:22:34;;;;;;;9.85;1.20;;;9.80;85.60;;;;;;5033659;28;20029;-71
2020/12/28 09:25:00;;;;;;;12.98;2.85;;;9.90;85.80;;;;;;5033731;28;20041;-70
2020/12/28 09:27:25;;;;;;;8.13;1.02;;;9.90;85.60;;;;;;5033052;28;20037;-71
2020/12/28 09:29:51;;;;;;;10.02;0.90;;;9.90;85.80;;;;;;5037663;28;20122;-70
2020/12/28 09:32:17;;;;;;;11.50;0.65;;;10.00;85.90;;;;;;5039048;28;20041;-70
2020/12/28 09:34:43;;;;;;;12.00;1.95;;;10.00;85.80;;;;;;5032237;28;20079;-70
2020/12/28 09:37:09;;;;;;;7.80;0.82;;;10.00;85.70;;;;;;5033028;28;20056;-71
2020/12/28 09:39:36;;;;;;;10.20;1.13;;;9.80;85.60;;;;;;5032500;28;20094;-71
2020/12/28 09:42:02;;;;;;;8.20;1.00;;;10.00;86.20;;;;;;5032423;28;20555;-71
2020/12/28 09:44:29;;;;;;;11.77;0.80;;;9.80;85.80;;;;;;5033301;28;20045;-71
2020/12/28 09:46:56;;;;;;;11.77;1.30;;;9.80;85.70;;;;;;5030924;28;20037;-71
2020/12/28 09:49:22;;;;;;;5.38;1.13;;;9.80;85.70;;;;;;5032589;28;20128;-71
2020/12/28 09:51:52;;;;;;;9.07;1.50;;;9.90;85.80;;;;;;5032500;28;20124;-71
2020/12/28 09:54:19;;;;;;;7.50;1.33;;;9.70;85.80;;;;;;5032081;28;20534;-71
2020/12/28 09:56:45;;;;;;;12.50;1.05;;;9.80;85.90;;;;;;5032611;28;20037;-71
2020/12/28 09:59:11;;;;;;;8.10;0.80;;;9.50;86.00;;;;;;5031141;28;20055;-71
2020/12/28 10:01:36;;;;;;;6.03;0.75;;;9.40;86.10;;;;;;5031860;28;20044;-71
2020/12/28 10:04:02;;;;;;;11.52;1.02;;;9.70;86.00;;;;;;5032327;28;20583;-70
2020/12/28 10:06:31;;;;;;;14.13;1.10;;;9.60;86.00;;;;;;5032650;28;20090;-70
2020/12/28 10:09:08;;;;;;;9.45;0.95;;;9.60;86.10;;;;;;5031612;28;20392;-71
2020/12/28 10:11:34;;;;;;;9.02;1.17;;;9.70;86.20;;;;;;5032396;28;20507;-70
2020/12/28 10:14:00;;;;;;;12.25;1.40;;;9.70;86.50;;;;;;5044039;28;20041;-71
2020/12/28 10:16:31;;;;;;;11.23;1.90;;;9.90;86.70;;;;;;5052479;28;20029;-70
2020/12/28 10:18:57;;;;;;;14.02;1.48;;;9.80;86.40;;;;;;5051670;28;20032;-70
2020/12/28 10:21:26;;;;;;;14.68;1.58;;;9.70;86.40;;;;;;5040189;28;20068;-70
2020/12/28 10:23:52;;;;;;;14.52;1.48;;;9.90;86.60;;;;;;5030572;28;20044;-70
2020/12/28 10:26:20;;;;;;;15.73;1.50;;;10.00;86.80;;;;;;5047147;28;20123;-70
2020/12/28 10:28:46;;;;;;;9.98;1.50;;;10.10;86.70;;;;;;5043513;28;20520;-70
2020/12/28 10:31:14;;;;;;;12.20;1.52;;;10.00;86.50;;;;;;5039639;28;20087;-71
2020/12/28 10:33:41;;;;;;;10.70;1.73;;;10.10;86.40;;;;;;5031154;28;20073;-71
2020/12/28 10:36:19;;;;;;;9.65;1.25;;;10.40;86.30;;;;;;5050664;28;20048;-70
2020/12/28 10:38:51;;;;;;;12.45;1.88;;;10.40;86.10;;;;;;5041187;28;20037;-70
2020/12/28 10:41:26;;;;;;;9.70;1.35;;;10.40;86.00;;;;;;5030933;28;20049;-71
2020/12/28 10:43:52;;;;;;;7.72;0.57;;;10.50;85.60;;;;;;5043157;28;20041;-71
2020/12/28 10:46:18;;;;;;;4.78;0.70;;;10.50;85.40;;;;;;5050828;28;20090;-71
2020/12/28 10:48:44;;;;;;;6.20;0.60;;;10.50;85.30;;;;;;5046659;28;20048;-70
2020/12/28 10:51:11;;;;;;;4.53;0.60;;;10.70;84.90;;;;;;5050260;28;20033;-70
2020/12/28 10:53:38;;;;;;;6.05;1.00;;;10.60;84.40;;;;;;5039153;28;20052;-70
2020/12/28 10:56:05;;;;;;;7.75;0.70;;;10.60;84.00;;;;;;5039951;28;20132;-70
2020/12/28 10:58:31;;;;;;;6.68;0.70;;;10.60;83.50;;;;;;5030753;28;20037;-71
2020/12/28 11:00:57;;;;;;;5.60;0.63;;;10.90;83.40;;;;;;5030595;28;20517;-70
2020/12/28 11:03:23;;;;;;;3.72;0.20;;;11.00;83.00;;;;;;5031079;28;20052;-70
2020/12/28 11:05:49;;;;;;;2.65;0.20;;;10.90;82.20;;;;;;5030580;28;20420;-70
2020/12/28 11:08:15;;;;;;;2.90;0.20;;;10.90;81.90;;;;;;5043409;28;20038;-70
2020/12/28 11:10:41;;;;;;;3.20;0.40;;;10.90;81.50;;;;;;5030937;28;20042;-71
2020/12/28 11:13:07;;;;;;;4.72;0.30;;;10.90;81.20;;;;;;5034536;28;20045;-70
2020/12/28 11:15:34;;;;;;;5.32;0.30;;;11.10;81.20;;;;;;5050376;28;20036;-70
2020/12/28 11:18:00;;;;;;;2.13;0.10;;;10.90;80.70;;;;;;5050759;28;20500;-70
2020/12/28 11:20:26;;;;;;;1.23;0.20;;;10.90;80.30;;;;;;5050300;28;20410;-70
2020/12/28 11:22:52;;;;;;;3.67;0.20;;;10.90;80.00;;;;;;5050295;28;20047;-70
2020/12/28 11:25:18;;;;;;;2.22;0.10;;;10.70;79.80;;;;;;5051121;28;20118;-70
2020/12/28 11:27:44;;;;;;;1.35;0.10;;;10.70;79.50;;;;;;5052095;28;20135;-70
2020/12/28 11:30:10;;;;;;;2.03;0.20;;;10.50;79.20;;;;;;5053167;28;20037;-71
2020/12/28 11:32:36;;;;;;;1.60;0.10;;;10.40;79.00;;;;;;5057088;28;20110;-71
2020/12/28 11:35:04;;;;;;;1.75;0.10;;;10.30;79.00;;;;;;5056635;28;20055;-71
2020/12/28 11:37:31;;;;;;;1.63;0.10;;;10.30;78.80;;;;;;5056856;28;20047;-71
2020/12/28 11:39:58;;;;;;;2.55;0.05;;;10.30;78.70;;;;;;5056599;28;20072;-71
2020/12/28 11:42:23;;;;;;;2.15;0.15;;;10.40;78.60;;;;;;5056458;28;20070;-71
2020/12/28 11:44:51;;;;;;;1.98;0.17;;;10.60;78.40;;;;;;5056775;28;20040;-71
2020/12/28 11:47:17;;;;;;;1.58;0.10;;;10.50;78.20;;;;;;5055848;28;20041;-71
2020/12/28 11:49:43;;;;;;;2.63;0.15;;;10.80;78.00;;;;;;5057090;28;20094;-71
2020/12/28 11:52:09;;;;;;;3.15;0.10;;;10.70;77.70;;;;;;5056761;28;20052;-71
2020/12/28 11:54:34;;;;;;;3.40;0.15;;;10.70;77.50;;;;;;5056077;28;20507;-71
2020/12/28 11:57:00;;;;;;;4.15;0.10;;;10.90;77.50;;;;;;5056207;28;20133;-71
2020/12/28 11:59:26;;;;;;;4.35;0.20;;;11.00;77.60;;;;;;5056474;28;20039;-71
2020/12/28 12:01:52;;;;;;;1.77;0.10;;;11.20;77.50;;;;;;5055939;28;20037;-70
2020/12/28 12:04:18;;;;;;;2.45;0.20;;;11.70;77.50;;;;;;5056012;28;20128;-72
2020/12/28 12:06:43;;;;;;;2.17;0.17;;;11.90;76.90;;;;;;5054871;28;20511;-71
2020/12/28 12:09:15;;;;;;;2.08;0.10;;;12.20;76.30;;;;;;5041630;28;20057;-71
2020/12/28 12:11:44;;;;;;;1.80;0.20;;;12.20;75.60;;;;;;5051062;28;20038;-72
2020/12/28 12:14:11;;;;;;;3.05;0.25;;;12.20;75.20;;;;;;5034646;28;20041;-71
2020/12/28 12:16:37;;;;;;;2.75;0.20;;;12.30;74.60;;;;;;5043477;28;20045;-72
2020/12/28 12:19:03;;;;;;;2.45;0.32;;;12.20;74.60;;;;;;5054823;28;20078;-72
2020/12/28 12:21:29;;;;;;;3.13;0.28;;;12.10;74.40;;;;;;5054775;28;20049;-72
2020/12/28 12:23:54;;;;;;;3.25;0.10;;;11.90;73.90;;;;;;5055583;28;20396;-71
2020/12/28 12:26:24;;;;;;;2.10;0.20;;;11.80;74.20;;;;;;5036598;28;20045;-73
2020/12/28 12:28:52;;;;;;;3.53;0.22;;;11.90;74.10;;;;;;5035259;28;20136;-71
2020/12/28 12:31:18;;;;;;;4.32;0.30;;;11.80;73.90;;;;;;5035903;28;20627;-72
2020/12/28 12:33:44;;;;;;;3.38;0.40;;;12.10;73.80;;;;;;5035722;28;20075;-71
2020/12/28 12:36:11;;;;;;;2.65;0.40;;;12.10;73.80;;;;;;5035554;28;20049;-72
2020/12/28 12:38:38;;;;;;;2.30;0.47;;;12.10;73.90;;;;;;5035789;28;20128;-72
2020/12/28 12:41:04;;;;;;;4.32;0.40;;;12.40;74.10;;;;;;5035767;28;20072;-72
2020/12/28 12:43:29;;;;;;;3.22;0.40;;;12.50;73.90;;;;;;5054414;28;20044;-72
2020/12/28 12:45:55;;;;;;;3.15;0.43;;;12.40;73.50;;;;;;5055743;28;20098;-72
2020/12/28 12:48:21;;;;;;;4.95;0.40;;;12.30;73.30;;;;;;5055652;28;20040;-72
2020/12/28 12:50:48;;;;;;;3.38;0.40;;;12.40;73.00;;;;;;5055371;28;20033;-71
2020/12/28 12:53:14;;;;;;;5.43;0.38;;;12.50;72.90;;;;;;5054942;28;20044;-71